sensor_id;sensor_type;location;lat;lon;timestamp;pressure;altitude;pressure_sealevel;temperature;humidity
70370;BME280;57790;51.356;-2.906;2022-08-01T00:01:13;102044.94;;;20.54;64.30
70370;BME280;57790;51.356;-2.906;2022-08-01T00:04:13;102042.25;;;20.54;64.44
70370;BME280;57790;51.356;-2.906;2022-08-01T00:07:14;102040.78;;;20.51;64.33
70370;BME280;57790;51.356;-2.906;2022-08-01T00:10:15;102040.34;;;20.47;64.10
70370;BME280;57790;51.356;-2.906;2022-08-01T00:13:16;102046.13;;;20.44;64.46
70370;BME280;57790;51.356;-2.906;2022-08-01T00:16:16;102061.66;;;20.42;64.34
70370;BME280;57790;51.356;-2.906;2022-08-01T00:19:17;102063.03;;;20.38;64.27
70370;BME280;57790;51.356;-2.906;2022-08-01T00:22:17;102062.38;;;20.36;64.53
70370;BME280;57790;51.356;-2.906;2022-08-01T00:25:18;102049.91;;;20.29;64.52
70370;BME280;57790;51.356;-2.906;2022-08-01T00:28:18;102054.66;;;20.27;64.44
70370;BME280;57790;51.356;-2.906;2022-08-01T00:31:19;102047.78;;;20.24;64.58
70370;BME280;57790;51.356;-2.906;2022-08-01T00:34:19;102052.94;;;20.19;64.52
70370;BME280;57790;51.356;-2.906;2022-08-01T00:37:20;102058.47;;;20.11;64.79
70370;BME280;57790;51.356;-2.906;2022-08-01T00:40:20;102058.38;;;20.04;64.64
70370;BME280;57790;51.356;-2.906;2022-08-01T00:43:21;102061.19;;;19.96;64.76
70370;BME280;57790;51.356;-2.906;2022-08-01T00:46:21;102058.63;;;19.88;65.05
70370;BME280;57790;51.356;-2.906;2022-08-01T00:49:22;102056.72;;;19.82;64.90
70370;BME280;57790;51.356;-2.906;2022-08-01T00:52:22;102057.91;;;19.79;64.77
70370;BME280;57790;51.356;-2.906;2022-08-01T00:55:23;102056.38;;;19.70;64.89
70370;BME280;57790;51.356;-2.906;2022-08-01T00:58:23;102056.88;;;19.59;64.68
70370;BME280;57790;51.356;-2.906;2022-08-01T01:01:24;102055.75;;;19.53;64.27
70370;BME280;57790;51.356;-2.906;2022-08-01T01:04:25;102046.75;;;19.46;64.14
70370;BME280;57790;51.356;-2.906;2022-08-01T01:08:07;102046.69;;;19.40;64.19
70370;BME280;57790;51.356;-2.906;2022-08-01T01:11:23;102049.72;;;19.37;64.38
70370;BME280;57790;51.356;-2.906;2022-08-01T01:14:40;102050.13;;;19.33;63.53
70370;BME280;57790;51.356;-2.906;2022-08-01T01:27:39;102043.25;;;19.31;62.79
70370;BME280;57790;51.356;-2.906;2022-08-01T01:30:44;102039.47;;;19.25;62.27
70370;BME280;57790;51.356;-2.906;2022-08-01T01:33:50;102046.72;;;19.25;62.46
70370;BME280;57790;51.356;-2.906;2022-08-01T01:36:52;102056.44;;;19.26;62.22
70370;BME280;57790;51.356;-2.906;2022-08-01T01:39:55;102059.78;;;19.28;62.66
70370;BME280;57790;51.356;-2.906;2022-08-01T01:42:56;102056.63;;;19.24;61.98
70370;BME280;57790;51.356;-2.906;2022-08-01T01:46:00;102053.28;;;19.22;61.94
70370;BME280;57790;51.356;-2.906;2022-08-01T01:49:01;102046.22;;;19.21;61.93
70370;BME280;57790;51.356;-2.906;2022-08-01T01:52:03;102048.47;;;19.18;62.06
70370;BME280;57790;51.356;-2.906;2022-08-01T01:55:06;102052.00;;;19.18;62.06
70370;BME280;57790;51.356;-2.906;2022-08-01T01:58:09;102046.81;;;19.17;61.79
70370;BME280;57790;51.356;-2.906;2022-08-01T02:01:12;102046.34;;;19.13;61.56
70370;BME280;57790;51.356;-2.906;2022-08-01T02:04:13;102044.03;;;19.10;62.15
70370;BME280;57790;51.356;-2.906;2022-08-01T02:07:19;102047.72;;;19.09;62.31
70370;BME280;57790;51.356;-2.906;2022-08-01T02:10:20;102048.47;;;19.03;62.15
70370;BME280;57790;51.356;-2.906;2022-08-01T02:13:22;102053.03;;;19.02;62.25
70370;BME280;57790;51.356;-2.906;2022-08-01T02:16:26;102051.34;;;19.01;62.49
70370;BME280;57790;51.356;-2.906;2022-08-01T02:19:27;102046.44;;;19.05;61.92
70370;BME280;57790;51.356;-2.906;2022-08-01T02:22:34;102055.06;;;19.00;62.07
70370;BME280;57790;51.356;-2.906;2022-08-01T02:25:44;102067.47;;;19.01;61.92
70370;BME280;57790;51.356;-2.906;2022-08-01T02:28:53;102068.78;;;19.06;61.92
70370;BME280;57790;51.356;-2.906;2022-08-01T02:31:56;102067.56;;;19.08;61.69
70370;BME280;57790;51.356;-2.906;2022-08-01T02:35:00;102063.84;;;19.09;61.73
70370;BME280;57790;51.356;-2.906;2022-08-01T02:38:03;102057.38;;;19.03;61.96
70370;BME280;57790;51.356;-2.906;2022-08-01T02:41:08;102054.88;;;19.02;61.42
70370;BME280;57790;51.356;-2.906;2022-08-01T02:44:15;102042.84;;;18.98;61.79
70370;BME280;57790;51.356;-2.906;2022-08-01T02:47:20;102040.50;;;18.95;61.44
70370;BME280;57790;51.356;-2.906;2022-08-01T02:50:23;102046.44;;;18.90;61.34
70370;BME280;57790;51.356;-2.906;2022-08-01T02:53:27;102045.78;;;18.88;61.60
70370;BME280;57790;51.356;-2.906;2022-08-01T02:56:30;102051.34;;;18.87;62.56
70370;BME280;57790;51.356;-2.906;2022-08-01T02:59:38;102044.03;;;18.81;61.30
70370;BME280;57790;51.356;-2.906;2022-08-01T03:02:39;102054.78;;;18.81;61.92
70370;BME280;57790;51.356;-2.906;2022-08-01T03:05:41;102048.09;;;18.77;61.79
70370;BME280;57790;51.356;-2.906;2022-08-01T03:08:44;102048.56;;;18.80;62.03
70370;BME280;57790;51.356;-2.906;2022-08-01T03:11:46;102055.97;;;18.78;61.84
70370;BME280;57790;51.356;-2.906;2022-08-01T03:14:49;102064.22;;;18.77;62.12
70370;BME280;57790;51.356;-2.906;2022-08-01T03:17:53;102059.84;;;18.76;61.63
70370;BME280;57790;51.356;-2.906;2022-08-01T03:20:56;102061.06;;;18.73;61.83
70370;BME280;57790;51.356;-2.906;2022-08-01T03:23:58;102057.44;;;18.66;61.74
70370;BME280;57790;51.356;-2.906;2022-08-01T03:27:00;102051.91;;;18.67;61.61
70370;BME280;57790;51.356;-2.906;2022-08-01T03:30:04;102058.16;;;18.60;61.81
70370;BME280;57790;51.356;-2.906;2022-08-01T03:33:05;102052.50;;;18.55;61.56
70370;BME280;57790;51.356;-2.906;2022-08-01T03:36:09;102046.94;;;18.56;62.02
70370;BME280;57790;51.356;-2.906;2022-08-01T03:39:11;102036.19;;;18.56;62.19
70370;BME280;57790;51.356;-2.906;2022-08-01T03:42:20;102035.25;;;18.49;61.81
70370;BME280;57790;51.356;-2.906;2022-08-01T03:45:27;102040.59;;;18.49;61.71
70370;BME280;57790;51.356;-2.906;2022-08-01T03:48:32;102035.25;;;18.49;61.96
70370;BME280;57790;51.356;-2.906;2022-08-01T03:51:37;102033.94;;;18.45;62.23
70370;BME280;57790;51.356;-2.906;2022-08-01T03:54:41;102037.38;;;18.39;62.34
70370;BME280;57790;51.356;-2.906;2022-08-01T03:57:45;102039.75;;;18.34;61.82
70370;BME280;57790;51.356;-2.906;2022-08-01T04:00:47;102036.22;;;18.33;61.67
70370;BME280;57790;51.356;-2.906;2022-08-01T04:03:48;102045.22;;;18.26;62.10
70370;BME280;57790;51.356;-2.906;2022-08-01T04:06:49;102060.47;;;18.25;61.58
70370;BME280;57790;51.356;-2.906;2022-08-01T04:09:54;102054.78;;;18.20;62.04
70370;BME280;57790;51.356;-2.906;2022-08-01T04:12:55;102056.53;;;18.13;61.99
70370;BME280;57790;51.356;-2.906;2022-08-01T04:15:55;102055.06;;;18.10;62.02
70370;BME280;57790;51.356;-2.906;2022-08-01T04:18:56;102049.38;;;18.05;62.00
70370;BME280;57790;51.356;-2.906;2022-08-01T04:21:56;102053.41;;;18.09;62.54
70370;BME280;57790;51.356;-2.906;2022-08-01T04:24:58;102050.56;;;18.03;62.05
70370;BME280;57790;51.356;-2.906;2022-08-01T04:28:01;102050.94;;;18.00;62.20
70370;BME280;57790;51.356;-2.906;2022-08-01T04:31:06;102048.81;;;17.95;62.08
70370;BME280;57790;51.356;-2.906;2022-08-01T04:34:11;102039.22;;;17.93;61.77
70370;BME280;57790;51.356;-2.906;2022-08-01T04:37:15;102049.50;;;17.89;61.84
70370;BME280;57790;51.356;-2.906;2022-08-01T04:40:20;102041.16;;;17.84;61.64
70370;BME280;57790;51.356;-2.906;2022-08-01T04:43:23;102047.91;;;17.80;61.18
70370;BME280;57790;51.356;-2.906;2022-08-01T04:46:24;102042.34;;;17.81;61.37
70370;BME280;57790;51.356;-2.906;2022-08-01T04:49:26;102048.06;;;17.78;61.21
70370;BME280;57790;51.356;-2.906;2022-08-01T04:52:35;102049.56;;;17.81;61.06
70370;BME280;57790;51.356;-2.906;2022-08-01T04:55:35;102056.94;;;17.79;60.91
70370;BME280;57790;51.356;-2.906;2022-08-01T04:58:36;102054.63;;;17.76;61.37
70370;BME280;57790;51.356;-2.906;2022-08-01T05:01:36;102061.31;;;17.80;61.22
70370;BME280;57790;51.356;-2.906;2022-08-01T05:04:37;102059.97;;;17.76;61.15
70370;BME280;57790;51.356;-2.906;2022-08-01T05:07:38;102066.19;;;17.76;60.91
70370;BME280;57790;51.356;-2.906;2022-08-01T05:10:39;102074.38;;;17.83;60.81
70370;BME280;57790;51.356;-2.906;2022-08-01T05:13:39;102082.25;;;17.84;61.02
70370;BME280;57790;51.356;-2.906;2022-08-01T05:16:40;102083.91;;;17.86;60.26
70370;BME280;57790;51.356;-2.906;2022-08-01T05:19:41;102087.41;;;17.86;60.17
70370;BME280;57790;51.356;-2.906;2022-08-01T05:22:43;102080.03;;;17.88;60.59
70370;BME280;57790;51.356;-2.906;2022-08-01T05:25:43;102092.44;;;17.89;60.01
70370;BME280;57790;51.356;-2.906;2022-08-01T05:28:43;102092.25;;;17.91;59.66
70370;BME280;57790;51.356;-2.906;2022-08-01T05:31:44;102098.94;;;17.95;59.40
70370;BME280;57790;51.356;-2.906;2022-08-01T05:34:44;102092.56;;;17.96;59.40
70370;BME280;57790;51.356;-2.906;2022-08-01T05:37:47;102094.41;;;17.95;58.86
70370;BME280;57790;51.356;-2.906;2022-08-01T05:40:48;102085.19;;;17.98;59.33
70370;BME280;57790;51.356;-2.906;2022-08-01T05:43:48;102081.94;;;18.02;58.76
70370;BME280;57790;51.356;-2.906;2022-08-01T05:46:48;102077.03;;;18.06;57.96
70370;BME280;57790;51.356;-2.906;2022-08-01T05:49:49;102079.72;;;18.06;57.24
70370;BME280;57790;51.356;-2.906;2022-08-01T05:52:49;102077.19;;;18.12;57.32
70370;BME280;57790;51.356;-2.906;2022-08-01T05:55:50;102080.34;;;18.16;56.51
70370;BME280;57790;51.356;-2.906;2022-08-01T05:58:51;102085.53;;;18.18;56.34
70370;BME280;57790;51.356;-2.906;2022-08-01T06:01:51;102076.09;;;18.22;56.73
70370;BME280;57790;51.356;-2.906;2022-08-01T06:04:52;102078.91;;;18.28;56.39
70370;BME280;57790;51.356;-2.906;2022-08-01T06:07:52;102084.28;;;18.28;55.97
70370;BME280;57790;51.356;-2.906;2022-08-01T06:10:52;102092.16;;;18.30;56.14
70370;BME280;57790;51.356;-2.906;2022-08-01T06:13:53;102091.41;;;18.36;56.86
70370;BME280;57790;51.356;-2.906;2022-08-01T06:16:53;102095.13;;;18.35;56.25
70370;BME280;57790;51.356;-2.906;2022-08-01T06:19:54;102091.06;;;18.39;56.15
70370;BME280;57790;51.356;-2.906;2022-08-01T06:22:54;102100.44;;;18.43;55.82
70370;BME280;57790;51.356;-2.906;2022-08-01T06:25:55;102092.84;;;18.47;56.23
70370;BME280;57790;51.356;-2.906;2022-08-01T06:28:55;102096.13;;;18.57;56.23
70370;BME280;57790;51.356;-2.906;2022-08-01T06:31:55;102088.34;;;18.62;55.31
70370;BME280;57790;51.356;-2.906;2022-08-01T06:34:56;102091.81;;;18.70;55.25
70370;BME280;57790;51.356;-2.906;2022-08-01T06:37:57;102096.91;;;18.80;55.48
70370;BME280;57790;51.356;-2.906;2022-08-01T06:40:58;102091.41;;;18.96;54.93
70370;BME280;57790;51.356;-2.906;2022-08-01T06:43:58;102087.78;;;19.04;54.54
70370;BME280;57790;51.356;-2.906;2022-08-01T06:47:02;102101.13;;;19.12;53.93
70370;BME280;57790;51.356;-2.906;2022-08-01T06:50:03;102094.38;;;19.16;53.76
70370;BME280;57790;51.356;-2.906;2022-08-01T06:53:04;102101.41;;;19.32;54.88
70370;BME280;57790;51.356;-2.906;2022-08-01T06:56:06;102105.38;;;19.36;53.03
70370;BME280;57790;51.356;-2.906;2022-08-01T06:59:07;102114.28;;;19.37;53.32
70370;BME280;57790;51.356;-2.906;2022-08-01T07:02:07;102106.22;;;19.37;52.60
70370;BME280;57790;51.356;-2.906;2022-08-01T07:05:08;102114.47;;;19.35;53.34
70370;BME280;57790;51.356;-2.906;2022-08-01T07:08:09;102122.47;;;19.28;53.07
70370;BME280;57790;51.356;-2.906;2022-08-01T07:11:09;102119.97;;;19.27;53.91
70370;BME280;57790;51.356;-2.906;2022-08-01T07:14:10;102121.16;;;19.24;53.67
70370;BME280;57790;51.356;-2.906;2022-08-01T07:17:10;102120.88;;;19.19;53.47
70370;BME280;57790;51.356;-2.906;2022-08-01T07:20:12;102126.91;;;19.21;53.49
70370;BME280;57790;51.356;-2.906;2022-08-01T07:23:12;102111.25;;;19.25;53.72
70370;BME280;57790;51.356;-2.906;2022-08-01T07:26:13;102120.69;;;19.36;54.11
70370;BME280;57790;51.356;-2.906;2022-08-01T07:29:13;102118.56;;;19.46;53.73
70370;BME280;57790;51.356;-2.906;2022-08-01T07:32:14;102112.16;;;19.61;53.14
70370;BME280;57790;51.356;-2.906;2022-08-01T07:35:14;102111.38;;;19.82;53.04
70370;BME280;57790;51.356;-2.906;2022-08-01T07:38:15;102110.56;;;20.03;51.52
70370;BME280;57790;51.356;-2.906;2022-08-01T07:41:17;102106.53;;;20.14;54.11
70370;BME280;57790;51.356;-2.906;2022-08-01T07:44:17;102106.53;;;20.14;50.40
70370;BME280;57790;51.356;-2.906;2022-08-01T07:47:23;102095.91;;;20.27;53.97
70370;BME280;57790;51.356;-2.906;2022-08-01T07:50:24;102102.75;;;20.30;50.52
70370;BME280;57790;51.356;-2.906;2022-08-01T07:53:24;102094.63;;;20.44;50.24
70370;BME280;57790;51.356;-2.906;2022-08-01T07:56:25;102104.63;;;20.50;48.72
70370;BME280;57790;51.356;-2.906;2022-08-01T07:59:26;102105.63;;;20.71;52.69
70370;BME280;57790;51.356;-2.906;2022-08-01T08:02:26;102102.66;;;20.94;48.47
70370;BME280;57790;51.356;-2.906;2022-08-01T08:05:28;102093.38;;;21.31;49.44
70370;BME280;57790;51.356;-2.906;2022-08-01T08:08:28;102102.47;;;21.71;47.60
70370;BME280;57790;51.356;-2.906;2022-08-01T08:11:29;102084.53;;;22.51;46.10
70370;BME280;57790;51.356;-2.906;2022-08-01T08:14:29;102077.88;;;22.60;45.61
70370;BME280;57790;51.356;-2.906;2022-08-01T08:17:30;102088.09;;;23.49;43.15
70370;BME280;57790;51.356;-2.906;2022-08-01T08:20:31;102080.25;;;23.28;42.82
70370;BME280;57790;51.356;-2.906;2022-08-01T08:23:32;102080.31;;;23.08;43.46
70370;BME280;57790;51.356;-2.906;2022-08-01T08:26:53;102079.63;;;23.26;45.48
70370;BME280;57790;51.356;-2.906;2022-08-01T08:29:54;102086.16;;;23.56;43.84
70370;BME280;57790;51.356;-2.906;2022-08-01T08:32:54;102083.34;;;23.89;42.17
70370;BME280;57790;51.356;-2.906;2022-08-01T08:35:55;102085.59;;;23.48;44.25
70370;BME280;57790;51.356;-2.906;2022-08-01T08:38:58;102088.41;;;23.14;43.80
70370;BME280;57790;51.356;-2.906;2022-08-01T08:42:06;102093.19;;;23.12;44.67
70370;BME280;57790;51.356;-2.906;2022-08-01T08:45:07;102105.25;;;23.23;43.32
70370;BME280;57790;51.356;-2.906;2022-08-01T08:48:08;102096.91;;;23.31;41.94
70370;BME280;57790;51.356;-2.906;2022-08-01T08:51:09;102091.09;;;24.67;41.08
70370;BME280;57790;51.356;-2.906;2022-08-01T08:54:11;102089.44;;;26.83;35.87
70370;BME280;57790;51.356;-2.906;2022-08-01T08:57:14;102086.00;;;26.99;35.47
70370;BME280;57790;51.356;-2.906;2022-08-01T09:00:15;102088.09;;;25.37;39.85
70370;BME280;57790;51.356;-2.906;2022-08-01T09:03:16;102077.84;;;26.87;37.84
70370;BME280;57790;51.356;-2.906;2022-08-01T09:06:16;102079.28;;;27.82;35.77
70370;BME280;57790;51.356;-2.906;2022-08-01T09:09:17;102076.53;;;29.65;31.95
70370;BME280;57790;51.356;-2.906;2022-08-01T09:12:18;102063.06;;;31.64;29.39
70370;BME280;57790;51.356;-2.906;2022-08-01T09:15:37;102056.41;;;30.67;29.24
70370;BME280;57790;51.356;-2.906;2022-08-01T09:18:39;102064.78;;;27.93;34.63
70370;BME280;57790;51.356;-2.906;2022-08-01T09:22:01;102059.94;;;27.15;36.31
70370;BME280;57790;51.356;-2.906;2022-08-01T09:25:10;102064.38;;;27.73;36.00
70370;BME280;57790;51.356;-2.906;2022-08-01T09:28:10;102062.19;;;27.18;36.90
70370;BME280;57790;51.356;-2.906;2022-08-01T09:31:13;102063.28;;;26.35;38.48
70370;BME280;57790;51.356;-2.906;2022-08-01T09:34:27;102061.88;;;25.91;37.86
70370;BME280;57790;51.356;-2.906;2022-08-01T09:37:31;102070.63;;;25.93;39.54
70370;BME280;57790;51.356;-2.906;2022-08-01T09:43:51;102074.03;;;25.88;40.01
70370;BME280;57790;51.356;-2.906;2022-08-01T09:46:53;102078.22;;;26.02;39.18
70370;BME280;57790;51.356;-2.906;2022-08-01T09:49:57;102075.72;;;26.01;37.82
70370;BME280;57790;51.356;-2.906;2022-08-01T09:52:57;102077.88;;;26.10;39.05
70370;BME280;57790;51.356;-2.906;2022-08-01T09:56:18;102083.69;;;26.14;38.75
70370;BME280;57790;51.356;-2.906;2022-08-01T09:59:19;102083.13;;;26.24;39.26
70370;BME280;57790;51.356;-2.906;2022-08-01T10:05:35;102088.59;;;25.94;38.04
70370;BME280;57790;51.356;-2.906;2022-08-01T10:08:46;102089.94;;;26.68;36.46
70370;BME280;57790;51.356;-2.906;2022-08-01T10:11:46;102090.47;;;29.42;34.02
70370;BME280;57790;51.356;-2.906;2022-08-01T10:14:49;102094.13;;;29.47;32.30
70370;BME280;57790;51.356;-2.906;2022-08-01T10:17:54;102094.53;;;31.36;30.44
70370;BME280;57790;51.356;-2.906;2022-08-01T10:20:55;102095.56;;;32.13;28.85
70370;BME280;57790;51.356;-2.906;2022-08-01T10:23:56;102087.91;;;33.26;27.56
70370;BME280;57790;51.356;-2.906;2022-08-01T10:27:03;102079.13;;;34.75;24.55
70370;BME280;57790;51.356;-2.906;2022-08-01T10:30:05;102079.16;;;35.42;24.17
70370;BME280;57790;51.356;-2.906;2022-08-01T10:33:08;102080.22;;;35.46;24.62
70370;BME280;57790;51.356;-2.906;2022-08-01T10:36:09;102080.41;;;36.39;23.11
70370;BME280;57790;51.356;-2.906;2022-08-01T10:39:10;102089.94;;;36.60;22.10
70370;BME280;57790;51.356;-2.906;2022-08-01T10:42:11;102080.50;;;36.93;21.83
70370;BME280;57790;51.356;-2.906;2022-08-01T10:45:14;102078.50;;;37.35;21.81
70370;BME280;57790;51.356;-2.906;2022-08-01T10:48:24;102084.47;;;37.65;22.05
70370;BME280;57790;51.356;-2.906;2022-08-01T10:51:27;102082.59;;;38.19;20.40
70370;BME280;57790;51.356;-2.906;2022-08-01T10:54:28;102074.69;;;38.26;20.94
70370;BME280;57790;51.356;-2.906;2022-08-01T10:57:46;102078.75;;;38.59;20.17
70370;BME280;57790;51.356;-2.906;2022-08-01T11:00:47;102080.47;;;38.69;20.46
70370;BME280;57790;51.356;-2.906;2022-08-01T11:04:10;102069.56;;;38.90;20.31
70370;BME280;57790;51.356;-2.906;2022-08-01T11:07:17;102069.63;;;39.07;19.61
70370;BME280;57790;51.356;-2.906;2022-08-01T11:10:38;102066.25;;;39.10;20.12
70370;BME280;57790;51.356;-2.906;2022-08-01T11:20:34;102067.56;;;39.91;19.06
70370;BME280;57790;51.356;-2.906;2022-08-01T11:23:47;102065.28;;;40.01;19.44
70370;BME280;57790;51.356;-2.906;2022-08-01T11:27:24;102058.66;;;40.32;18.71
70370;BME280;57790;51.356;-2.906;2022-08-01T11:30:25;102046.22;;;39.65;19.17
70370;BME280;57790;51.356;-2.906;2022-08-01T11:36:41;102048.28;;;40.58;18.68
70370;BME280;57790;51.356;-2.906;2022-08-01T11:39:42;102039.91;;;40.67;18.42
70370;BME280;57790;51.356;-2.906;2022-08-01T11:42:42;102037.00;;;40.55;16.78
70370;BME280;57790;51.356;-2.906;2022-08-01T11:45:53;102019.34;;;40.04;18.96
70370;BME280;57790;51.356;-2.906;2022-08-01T11:52:30;102026.50;;;40.60;18.24
70370;BME280;57790;51.356;-2.906;2022-08-01T11:55:32;102032.63;;;40.45;18.43
70370;BME280;57790;51.356;-2.906;2022-08-01T11:58:34;102034.97;;;40.26;18.84
70370;BME280;57790;51.356;-2.906;2022-08-01T12:01:35;102032.53;;;40.24;19.05
70370;BME280;57790;51.356;-2.906;2022-08-01T12:04:49;102024.66;;;40.94;18.10
70370;BME280;57790;51.356;-2.906;2022-08-01T12:07:51;102024.09;;;41.09;17.82
70370;BME280;57790;51.356;-2.906;2022-08-01T12:10:52;102017.56;;;40.76;17.91
70370;BME280;57790;51.356;-2.906;2022-08-01T12:13:52;102010.28;;;40.62;18.39
70370;BME280;57790;51.356;-2.906;2022-08-01T12:16:55;102001.84;;;40.12;18.73
70370;BME280;57790;51.356;-2.906;2022-08-01T12:19:55;101997.19;;;39.69;19.51
70370;BME280;57790;51.356;-2.906;2022-08-01T12:23:03;101997.16;;;39.78;19.53
70370;BME280;57790;51.356;-2.906;2022-08-01T12:26:05;101996.88;;;39.27;20.32
70370;BME280;57790;51.356;-2.906;2022-08-01T12:29:06;101982.13;;;38.92;20.56
70370;BME280;57790;51.356;-2.906;2022-08-01T12:32:23;101986.53;;;38.93;20.37
70370;BME280;57790;51.356;-2.906;2022-08-01T12:35:25;101991.38;;;38.00;21.11
70370;BME280;57790;51.356;-2.906;2022-08-01T12:38:26;101989.47;;;38.40;20.80
70370;BME280;57790;51.356;-2.906;2022-08-01T12:41:28;101991.75;;;38.78;20.87
70370;BME280;57790;51.356;-2.906;2022-08-01T12:44:30;101999.34;;;38.63;20.74
70370;BME280;57790;51.356;-2.906;2022-08-01T12:47:31;101989.00;;;38.95;20.60
70370;BME280;57790;51.356;-2.906;2022-08-01T12:50:32;101987.47;;;38.72;20.52
70370;BME280;57790;51.356;-2.906;2022-08-01T12:53:34;101990.81;;;39.43;20.30
70370;BME280;57790;51.356;-2.906;2022-08-01T12:56:34;101991.44;;;39.74;19.43
70370;BME280;57790;51.356;-2.906;2022-08-01T12:59:35;101993.09;;;39.67;19.19
70370;BME280;57790;51.356;-2.906;2022-08-01T13:02:36;101994.53;;;39.81;19.41
70370;BME280;57790;51.356;-2.906;2022-08-01T13:05:56;101995.38;;;40.29;19.23
70370;BME280;57790;51.356;-2.906;2022-08-01T13:09:08;101980.59;;;41.25;17.76
70370;BME280;57790;51.356;-2.906;2022-08-01T13:12:10;101983.75;;;41.36;18.17
70370;BME280;57790;51.356;-2.906;2022-08-01T13:15:19;101975.13;;;40.58;18.71
70370;BME280;57790;51.356;-2.906;2022-08-01T13:18:28;101979.19;;;41.65;17.41
70370;BME280;57790;51.356;-2.906;2022-08-01T13:21:30;101984.84;;;41.44;17.89
70370;BME280;57790;51.356;-2.906;2022-08-01T13:24:30;101978.44;;;40.81;18.17
70370;BME280;57790;51.356;-2.906;2022-08-01T13:27:31;101965.94;;;41.08;16.92
70370;BME280;57790;51.356;-2.906;2022-08-01T13:30:31;101959.66;;;40.98;18.51
70370;BME280;57790;51.356;-2.906;2022-08-01T13:33:44;101958.97;;;41.01;18.23
70370;BME280;57790;51.356;-2.906;2022-08-01T13:36:45;101963.34;;;40.61;18.63
70370;BME280;57790;51.356;-2.906;2022-08-01T13:39:46;101962.75;;;40.76;18.86
70370;BME280;57790;51.356;-2.906;2022-08-01T13:42:50;101948.44;;;40.65;18.68
70370;BME280;57790;51.356;-2.906;2022-08-01T13:45:50;101942.56;;;40.58;18.33
70370;BME280;57790;51.356;-2.906;2022-08-01T13:48:51;101939.59;;;39.96;19.25
70370;BME280;57790;51.356;-2.906;2022-08-01T13:51:51;101937.44;;;39.37;20.12
70370;BME280;57790;51.356;-2.906;2022-08-01T13:54:51;101934.97;;;39.36;20.00
70370;BME280;57790;51.356;-2.906;2022-08-01T13:57:52;101930.91;;;39.24;20.03
70370;BME280;57790;51.356;-2.906;2022-08-01T14:00:52;101940.34;;;38.97;19.69
70370;BME280;57790;51.356;-2.906;2022-08-01T14:03:53;101927.53;;;38.53;20.60
70370;BME280;57790;51.356;-2.906;2022-08-01T14:06:53;101932.03;;;37.70;21.47
70370;BME280;57790;51.356;-2.906;2022-08-01T14:09:53;101937.22;;;36.54;22.84
70370;BME280;57790;51.356;-2.906;2022-08-01T14:12:57;101933.00;;;35.88;23.78
70370;BME280;57790;51.356;-2.906;2022-08-01T14:15:58;101932.28;;;34.94;25.38
70370;BME280;57790;51.356;-2.906;2022-08-01T14:18:58;101934.03;;;33.84;27.99
70370;BME280;57790;51.356;-2.906;2022-08-01T14:21:59;101927.53;;;33.46;27.18
70370;BME280;57790;51.356;-2.906;2022-08-01T14:24:59;101922.41;;;33.24;28.48
70370;BME280;57790;51.356;-2.906;2022-08-01T14:28:00;101919.97;;;32.73;29.00
70370;BME280;57790;51.356;-2.906;2022-08-01T14:31:00;101920.38;;;32.36;30.62
70370;BME280;57790;51.356;-2.906;2022-08-01T14:34:01;101920.16;;;32.17;30.40
70370;BME280;57790;51.356;-2.906;2022-08-01T14:37:01;101914.16;;;31.89;30.87
70370;BME280;57790;51.356;-2.906;2022-08-01T14:40:03;101907.56;;;31.90;31.21
70370;BME280;57790;51.356;-2.906;2022-08-01T14:43:05;101903.22;;;31.84;30.88
70370;BME280;57790;51.356;-2.906;2022-08-01T14:46:06;101904.28;;;31.68;31.73
70370;BME280;57790;51.356;-2.906;2022-08-01T14:49:08;101907.84;;;31.48;31.87
70370;BME280;57790;51.356;-2.906;2022-08-01T14:52:08;101906.75;;;31.39;32.18
70370;BME280;57790;51.356;-2.906;2022-08-01T14:55:10;101901.84;;;31.41;32.31
70370;BME280;57790;51.356;-2.906;2022-08-01T14:58:11;101904.00;;;31.34;32.61
70370;BME280;57790;51.356;-2.906;2022-08-01T15:01:11;101901.56;;;31.27;32.75
70370;BME280;57790;51.356;-2.906;2022-08-01T15:04:11;101903.19;;;31.28;32.96
70370;BME280;57790;51.356;-2.906;2022-08-01T15:07:13;101891.38;;;31.18;32.90
70370;BME280;57790;51.356;-2.906;2022-08-01T15:10:13;101892.78;;;31.25;32.91
70370;BME280;57790;51.356;-2.906;2022-08-01T15:13:16;101884.25;;;31.12;32.93
70370;BME280;57790;51.356;-2.906;2022-08-01T15:16:16;101884.22;;;31.01;33.59
70370;BME280;57790;51.356;-2.906;2022-08-01T15:19:16;101884.22;;;31.01;32.80
70370;BME280;57790;51.356;-2.906;2022-08-01T15:22:18;101879.53;;;30.92;33.53
70370;BME280;57790;51.356;-2.906;2022-08-01T15:25:18;101884.16;;;30.71;33.76
70370;BME280;57790;51.356;-2.906;2022-08-01T15:28:19;101888.25;;;30.73;33.70
70370;BME280;57790;51.356;-2.906;2022-08-01T15:31:20;101872.63;;;30.64;34.03
70370;BME280;57790;51.356;-2.906;2022-08-01T15:34:20;101869.00;;;30.53;34.68
70370;BME280;57790;51.356;-2.906;2022-08-01T15:37:21;101865.13;;;30.44;34.49
70370;BME280;57790;51.356;-2.906;2022-08-01T15:40:21;101856.59;;;30.30;34.61
70370;BME280;57790;51.356;-2.906;2022-08-01T15:43:22;101854.84;;;30.09;35.30
70370;BME280;57790;51.356;-2.906;2022-08-01T15:46:22;101840.00;;;30.00;35.32
70370;BME280;57790;51.356;-2.906;2022-08-01T15:49:23;101844.31;;;29.85;35.64
70370;BME280;57790;51.356;-2.906;2022-08-01T15:52:24;101843.13;;;29.71;36.29
70370;BME280;57790;51.356;-2.906;2022-08-01T15:55:24;101850.94;;;29.57;36.31
70370;BME280;57790;51.356;-2.906;2022-08-01T15:58:24;101852.00;;;29.51;36.81
70370;BME280;57790;51.356;-2.906;2022-08-01T16:01:25;101849.09;;;29.36;37.14
70370;BME280;57790;51.356;-2.906;2022-08-01T16:04:26;101850.16;;;29.30;36.98
70370;BME280;57790;51.356;-2.906;2022-08-01T16:07:26;101842.91;;;29.14;37.19
70370;BME280;57790;51.356;-2.906;2022-08-01T16:10:27;101852.09;;;29.02;37.81
70370;BME280;57790;51.356;-2.906;2022-08-01T16:13:28;101844.94;;;28.96;38.00